Time;durP1;ratioP1;P1;durP2;ratioP2;P2;SDS_P1;SDS_P2;PMS_P1;PMS_P2;Temp;Humidity;BMP_temperature;BMP_pressure;BME280_temperature;BME280_humidity;BME280_pressure;Samples;Min_cycle;Max_cycle;Signal;HPM_P1;HPM_P2
2024/04/15 00:02:23;;;;;;;10.25;2.00;;;;;;;8.85;87.76;99941.47;5474513;26;20002;-55
2024/04/15 00:04:51;;;;;;;17.90;3.45;;;;;;;8.86;87.34;99948.59;5465475;26;20010;-57
2024/04/15 00:07:18;;;;;;;7.10;1.50;;;;;;;8.84;87.48;99929.59;5468334;26;20340;-57
2024/04/15 00:09:46;;;;;;;13.43;2.00;;;;;;;8.84;87.30;99921.31;5492463;26;20017;-57
2024/04/15 00:12:13;;;;;;;9.93;2.58;;;;;;;8.81;87.51;99908.25;5469509;25;20017;-59
2024/04/15 00:14:41;;;;;;;11.82;2.63;;;;;;;8.81;87.79;99905.50;5472377;26;20002;-57
2024/04/15 00:17:08;;;;;;;9.20;2.13;;;;;;;8.81;87.69;99891.69;5452989;26;20003;-58
2024/04/15 00:19:35;;;;;;;7.35;1.80;;;;;;;8.79;87.46;99896.75;5457197;26;20002;-57
2024/04/15 00:22:03;;;;;;;9.27;2.05;;;;;;;8.79;87.38;99874.66;5475949;26;20078;-58
2024/04/15 00:24:30;;;;;;;14.68;3.13;;;;;;;8.79;87.78;99871.91;5461194;26;20015;-59
2024/04/15 00:26:58;;;;;;;12.30;1.88;;;;;;;8.77;88.02;99863.19;5447331;26;20034;-55
2024/04/15 00:29:26;;;;;;;11.25;2.15;;;;;;;8.76;88.19;99860.78;5476232;26;20014;-55
2024/04/15 00:31:53;;;;;;;9.70;2.78;;;;;;;8.75;88.21;99851.72;5447778;26;20402;-56
2024/04/15 00:34:21;;;;;;;11.98;2.92;;;;;;;8.74;88.04;99832.72;5512642;26;19998;-55
2024/04/15 00:36:49;;;;;;;25.08;2.65;;;;;;;8.70;88.22;99813.34;5519045;26;20070;-57
2024/04/15 00:39:16;;;;;;;7.03;1.63;;;;;;;8.71;88.53;99808.63;5494283;25;20042;-55
2024/04/15 00:41:44;;;;;;;14.07;2.47;;;;;;;8.70;88.53;99804.25;5447875;26;20015;-56
2024/04/15 00:44:11;;;;;;;8.50;1.92;;;;;;;8.68;88.67;99790.03;5447504;26;20034;-56
2024/04/15 00:46:39;;;;;;;7.20;2.22;;;;;;;8.67;88.58;99797.50;5447342;26;20007;-56
2024/04/15 00:49:11;;;;;;;10.15;2.35;;;;;;;8.69;88.51;99773.09;5445016;26;20017;-56
2024/04/15 00:51:41;;;;;;;12.30;1.95;;;;;;;8.70;88.87;99760.91;5447295;26;20021;-55
2024/04/15 00:54:10;;;;;;;11.38;2.03;;;;;;;8.72;88.80;99755.84;5447551;26;20363;-55
2024/04/15 00:56:38;;;;;;;9.57;2.30;;;;;;;8.71;89.22;99756.97;5452770;26;20006;-57
2024/04/15 00:59:06;;;;;;;11.63;2.95;;;;;;;8.69;88.99;99734.47;5473761;26;20443;-58
2024/04/15 01:01:34;;;;;;;7.65;1.40;;;;;;;8.68;89.60;99715.53;5449198;26;20048;-56
2024/04/15 01:04:01;;;;;;;14.52;3.08;;;;;;;8.68;89.47;99721.03;5447849;26;20049;-57
2024/04/15 01:06:29;;;;;;;8.32;1.92;;;;;;;8.68;89.54;99702.53;5461287;26;19998;-57
2024/04/15 01:08:57;;;;;;;9.20;2.30;;;;;;;8.68;89.83;99710.00;5450094;26;20365;-57
2024/04/15 01:11:24;;;;;;;16.45;2.28;;;;;;;8.67;89.53;99678.84;5478525;25;20025;-57
2024/04/15 01:13:51;;;;;;;15.55;2.83;;;;;;;8.66;90.18;99685.50;5470724;26;20744;-52
2024/04/15 01:16:19;;;;;;;9.90;1.63;;;;;;;8.67;89.82;99700.91;5472540;26;20510;-54
2024/04/15 01:18:46;;;;;;;6.05;1.77;;;;;;;8.63;89.97;99683.47;5468617;26;20344;-57
2024/04/15 01:21:14;;;;;;;10.60;2.45;;;;;;;8.63;90.67;99675.19;5460450;26;20018;-54
2024/04/15 01:23:46;;;;;;;19.33;6.50;;;;;;;8.58;90.87;99645.13;5452346;26;20003;-57
2024/04/15 01:26:14;;;;;;;6.22;2.35;;;;;;;8.54;90.90;99633.22;5461763;26;20347;-57
2024/04/15 01:28:41;;;;;;;8.48;1.63;;;;;;;8.53;91.22;99626.09;5447451;26;20039;-56
2024/04/15 01:31:09;;;;;;;13.02;2.80;;;;;;;8.50;91.33;99624.03;5463761;26;20016;-55
2024/04/15 01:33:37;;;;;;;10.05;2.05;;;;;;;8.47;91.42;99583.41;5488190;26;20340;-55
2024/04/15 01:36:05;;;;;;;5.93;1.55;;;;;;;8.46;91.98;99592.84;5444589;26;20002;-56
2024/04/15 01:38:32;;;;;;;6.40;1.88;;;;;;;8.44;92.58;99584.94;5476253;26;20049;-55
2024/04/15 01:41:00;;;;;;;7.40;0.90;;;;;;;8.44;92.36;99598.72;5466449;26;20006;-54
2024/04/15 01:43:27;;;;;;;11.88;2.17;;;;;;;8.46;92.54;99603.88;5447361;26;20039;-54
2024/04/15 01:45:54;;;;;;;8.45;1.90;;;;;;;8.45;92.75;99592.03;5448083;26;20080;-57
2024/04/15 01:48:22;;;;;;;7.50;1.50;;;;;;;8.45;92.36;99641.69;5481907;26;20002;-59
2024/04/15 01:50:51;;;;;;;7.95;1.65;;;;;;;8.46;92.87;99643.28;5466328;26;20368;-57
2024/04/15 01:53:18;;;;;;;9.50;2.05;;;;;;;8.45;92.48;99627.06;5448144;26;20003;-56
2024/04/15 01:55:46;;;;;;;10.40;1.73;;;;;;;8.41;92.90;99596.69;5455415;26;20655;-54
2024/04/15 01:58:13;;;;;;;6.43;1.50;;;;;;;8.38;93.00;99611.19;5448828;26;20022;-55
2024/04/15 02:00:41;;;;;;;11.57;2.08;;;;;;;8.37;93.55;99606.00;5445733;26;20003;-57
2024/04/15 02:03:08;;;;;;;6.78;1.60;;;;;;;8.35;93.33;99580.75;5464186;26;20075;-58
2024/04/15 02:05:36;;;;;;;6.18;1.40;;;;;;;8.32;94.05;99570.44;5482417;26;20325;-56
2024/04/15 02:08:04;;;;;;;12.93;2.33;;;;;;;8.31;94.15;99564.09;5457260;26;20015;-54
2024/04/15 02:10:31;;;;;;;7.93;1.33;;;;;;;8.29;94.14;99565.63;5448827;26;20674;-55
2024/04/15 02:12:59;;;;;;;12.50;1.25;;;;;;;8.28;94.03;99558.53;5442161;26;20016;-57
2024/04/15 02:15:26;;;;;;;6.70;2.38;;;;;;;8.27;94.24;99543.94;5475059;26;20097;-57
2024/04/15 02:17:54;;;;;;;3.72;1.33;;;;;;;8.28;94.23;99550.25;5466275;26;20018;-56
2024/04/15 02:20:21;;;;;;;9.75;1.40;;;;;;;8.27;94.39;99559.69;5480906;26;20014;-56
2024/04/15 02:22:49;;;;;;;4.88;1.17;;;;;;;8.26;94.33;99575.38;5479982;26;19998;-59
2024/04/15 02:25:16;;;;;;;5.03;1.33;;;;;;;8.23;94.42;99608.41;5475307;26;20014;-55
2024/04/15 02:27:44;;;;;;;6.10;1.08;;;;;;;8.17;94.63;99640.97;5469968;25;20003;-56
2024/04/15 02:30:12;;;;;;;2.67;0.47;;;;;;;8.00;93.95;99644.06;5446250;26;20080;-53
2024/04/15 02:32:42;;;;;;;2.00;0.63;;;;;;;7.84;93.84;99626.69;5473015;26;20036;-55
2024/04/15 02:35:09;;;;;;;1.35;0.55;;;;;;;7.69;93.89;99636.56;5474357;26;20022;-57
2024/04/15 02:37:37;;;;;;;2.22;0.70;;;;;;;7.58;94.23;99635.47;5453706;26;20003;-57
2024/04/15 02:40:04;;;;;;;0.85;0.38;;;;;;;7.47;93.55;99630.81;5445795;26;20440;-57
2024/04/15 02:42:32;;;;;;;2.85;0.65;;;;;;;7.41;93.50;99635.78;5486197;26;19998;-55
2024/04/15 02:45:00;;;;;;;2.83;1.35;;;;;;;7.35;93.89;99637.19;5482200;26;19998;-56
2024/04/15 02:47:29;;;;;;;2.72;0.60;;;;;;;7.30;93.62;99656.72;5482442;26;20010;-57
2024/04/15 02:49:57;;;;;;;2.20;1.15;;;;;;;7.24;93.43;99660.84;5481841;26;19998;-56
2024/04/15 02:52:25;;;;;;;5.85;0.90;;;;;;;7.22;93.69;99682.44;5480493;26;20006;-54
2024/04/15 02:54:52;;;;;;;4.32;0.90;;;;;;;7.18;93.45;99681.50;5479310;26;20013;-57
2024/04/15 02:57:19;;;;;;;6.28;1.05;;;;;;;7.13;93.59;99690.00;5482009;26;20017;-56
2024/04/15 02:59:50;;;;;;;2.80;0.75;;;;;;;7.08;93.58;99688.31;5481934;26;20021;-56
2024/04/15 03:02:17;;;;;;;7.50;1.15;;;;;;;7.04;93.51;99681.88;5537716;21;20496;-55
2024/04/15 03:04:45;;;;;;;7.55;1.00;;;;;;;7.05;93.53;99693.69;5445362;26;20389;-56
2024/04/15 03:07:12;;;;;;;2.60;0.60;;;;;;;7.02;93.56;99689.69;5413484;26;20003;-55
2024/04/15 03:09:39;;;;;;;1.75;0.77;;;;;;;7.02;93.45;99694.38;5457134;26;20006;-55
2024/04/15 03:12:08;;;;;;;4.05;0.75;;;;;;;6.97;93.49;99692.69;5482450;26;20017;-52
2024/04/15 03:14:36;;;;;;;4.85;0.90;;;;;;;6.95;93.56;99677.66;5452669;26;20017;-57
2024/04/15 03:17:03;;;;;;;1.30;0.30;;;;;;;6.93;93.91;99690.97;5484882;26;20407;-59
2024/04/15 03:19:31;;;;;;;6.45;1.83;;;;;;;6.88;93.31;99681.03;5484891;26;20034;-57
2024/04/15 03:21:58;;;;;;;2.80;0.55;;;;;;;6.85;93.56;99678.16;5485102;26;20010;-56
2024/04/15 03:24:27;;;;;;;3.20;0.73;;;;;;;6.86;93.17;99686.03;5484862;26;20471;-57
2024/04/15 03:26:55;;;;;;;6.22;0.95;;;;;;;6.83;93.03;99663.94;5484519;26;20440;-56
2024/04/15 03:29:23;;;;;;;4.68;0.77;;;;;;;6.82;92.99;99646.63;5449113;26;20459;-53
2024/04/15 03:31:50;;;;;;;3.53;1.15;;;;;;;6.82;93.10;99632.06;5448096;26;20022;-55
2024/04/15 03:34:18;;;;;;;2.95;0.65;;;;;;;6.74;92.58;99622.81;5480090;26;20002;-55
2024/04/15 03:36:45;;;;;;;2.13;0.50;;;;;;;6.75;92.89;99636.19;5484781;26;20434;-56
2024/04/15 03:39:13;;;;;;;5.40;0.90;;;;;;;6.74;92.78;99634.63;5484373;26;20069;-54
2024/04/15 03:41:41;;;;;;;5.30;0.70;;;;;;;6.71;92.71;99623.50;5484663;26;20389;-56
2024/04/15 03:44:08;;;;;;;7.78;1.65;;;;;;;6.66;92.78;99632.00;5484411;26;20331;-55
2024/04/15 03:46:36;;;;;;;3.95;0.63;;;;;;;6.67;92.50;99633.59;5484164;26;20475;-54
2024/04/15 03:49:03;;;;;;;7.43;1.15;;;;;;;6.61;92.34;99641.28;5461821;26;20025;-53
2024/04/15 03:51:30;;;;;;;6.57;1.02;;;;;;;6.58;92.36;99633.72;5415886;26;20035;-57
2024/04/15 03:53:58;;;;;;;10.48;2.25;;;;;;;6.55;92.21;99663.84;5447311;26;20055;-57
2024/04/15 03:56:26;;;;;;;4.90;0.95;;;;;;;6.49;92.27;99646.78;5447946;26;20083;-57
2024/04/15 03:58:53;;;;;;;2.75;1.15;;;;;;;6.42;92.01;99637.50;5447718;26;20363;-56
2024/04/15 04:01:21;;;;;;;11.55;1.90;;;;;;;6.35;91.96;99649.09;5446547;26;20003;-56
2024/04/15 04:03:48;;;;;;;4.03;0.85;;;;;;;6.32;92.08;99665.47;5447527;26;20035;-55
2024/04/15 04:06:16;;;;;;;7.88;1.55;;;;;;;6.31;92.04;99658.34;5447276;26;20337;-57
2024/04/15 04:08:43;;;;;;;4.65;0.70;;;;;;;6.27;91.98;99651.94;5447308;26;20011;-56
2024/04/15 04:11:11;;;;;;;6.90;1.35;;;;;;;6.23;91.74;99656.50;5447982;26;20011;-56
2024/04/15 04:13:38;;;;;;;6.05;1.38;;;;;;;6.21;92.04;99659.63;5416119;26;20003;-55
2024/04/15 04:16:11;;;;;;;5.20;2.10;;;;;;;6.22;91.68;99661.22;5446884;26;20346;-56
2024/04/15 04:18:40;;;;;;;3.00;1.38;;;;;;;6.23;91.44;99668.31;5446729;26;20022;-57
2024/04/15 04:21:11;;;;;;;6.00;1.10;;;;;;;6.21;91.54;99676.09;5415339;26;20018;-55
2024/04/15 04:23:39;;;;;;;5.57;1.27;;;;;;;6.22;91.25;99674.97;5415041;26;20007;-57
2024/04/15 04:26:06;;;;;;;3.70;0.98;;;;;;;6.23;91.31;99687.56;5447191;26;19998;-56
2024/04/15 04:28:34;;;;;;;4.03;0.95;;;;;;;6.23;90.71;99664.75;5447129;26;20007;-57
2024/04/15 04:31:05;;;;;;;6.50;0.90;;;;;;;6.22;90.66;99671.41;5446181;26;20454;-56
2024/04/15 04:33:32;;;;;;;5.30;1.38;;;;;;;6.20;90.85;99676.44;5450462;26;20002;-58
2024/04/15 04:36:00;;;;;;;4.05;1.08;;;;;;;6.19;90.67;99685.84;5447410;26;20018;-57
2024/04/15 04:38:28;;;;;;;2.33;0.77;;;;;;;6.17;90.22;99696.38;5447161;26;20031;-58
2024/04/15 04:40:56;;;;;;;6.82;1.17;;;;;;;6.13;90.28;99696.25;5446743;26;20392;-54
2024/04/15 04:43:24;;;;;;;2.92;1.02;;;;;;;6.11;89.91;99699.34;5446901;26;20007;-56
2024/04/15 04:45:52;;;;;;;4.13;0.90;;;;;;;6.11;89.97;99709.53;5445926;26;20330;-57
2024/04/15 04:48:21;;;;;;;3.95;1.30;;;;;;;6.09;89.72;99707.09;5446884;26;20014;-59
2024/04/15 04:50:48;;;;;;;8.27;1.55;;;;;;;6.05;89.74;99708.13;5446176;26;20344;-58
2024/04/15 04:53:15;;;;;;;3.83;1.50;;;;;;;6.02;89.53;99722.53;5446129;26;20358;-54
2024/04/15 04:55:43;;;;;;;6.07;1.10;;;;;;;5.97;89.21;99725.50;5446849;26;20003;-58
2024/04/15 04:58:13;;;;;;;4.38;1.30;;;;;;;5.92;89.33;99720.25;5447040;26;20032;-58
2024/04/15 05:00:40;;;;;;;8.52;1.95;;;;;;;5.89;89.32;99729.16;5403908;26;20007;-57
2024/04/15 05:03:08;;;;;;;5.38;0.77;;;;;;;5.87;89.39;99725.94;5415093;26;20476;-57
2024/04/15 05:05:35;;;;;;;4.40;0.63;;;;;;;5.82;88.94;99731.63;5446385;26;20034;-55
2024/04/15 05:08:03;;;;;;;4.93;1.00;;;;;;;5.79;89.06;99729.56;5446446;26;20013;-58
2024/04/15 05:10:30;;;;;;;1.65;0.60;;;;;;;5.73;88.69;99742.69;5471832;26;20010;-55
2024/04/15 05:12:58;;;;;;;3.70;0.98;;;;;;;5.70;88.67;99737.06;5460834;26;20088;-58
2024/04/15 05:15:25;;;;;;;3.80;1.00;;;;;;;5.64;88.33;99744.69;5436594;26;20386;-60
2024/04/15 05:17:52;;;;;;;4.40;0.98;;;;;;;5.64;88.54;99743.91;5445131;26;20043;-58
2024/04/15 05:20:20;;;;;;;5.70;0.80;;;;;;;5.58;88.10;99746.06;5445760;26;20013;-58
2024/04/15 05:22:47;;;;;;;1.20;0.75;;;;;;;5.56;88.29;99755.78;5445850;26;20072;-58
2024/04/15 05:25:15;;;;;;;2.92;0.63;;;;;;;5.49;87.88;99761.78;5445940;26;20376;-58
2024/04/15 05:27:42;;;;;;;1.77;1.02;;;;;;;5.45;87.94;99764.38;5446355;26;20003;-59
2024/04/15 05:30:10;;;;;;;2.53;0.70;;;;;;;5.45;87.88;99758.91;5445084;26;20448;-57
2024/04/15 05:32:37;;;;;;;5.13;0.73;;;;;;;5.46;87.77;99771.50;5453605;26;20365;-57
2024/04/15 05:35:05;;;;;;;4.45;1.10;;;;;;;5.46;87.73;99771.50;5449621;26;20009;-58
2024/04/15 05:37:32;;;;;;;4.60;0.70;;;;;;;5.46;87.31;99770.69;5445476;26;20555;-58
2024/04/15 05:40:00;;;;;;;3.00;0.80;;;;;;;5.43;87.03;99766.66;5446384;26;20007;-57
2024/04/15 05:42:27;;;;;;;6.40;0.90;;;;;;;5.40;87.19;99764.59;5414606;26;20410;-58
2024/04/15 05:44:55;;;;;;;2.72;1.15;;;;;;;5.37;87.22;99773.53;5414022;26;20449;-56
2024/04/15 05:47:22;;;;;;;6.30;0.68;;;;;;;5.37;87.42;99784.50;5444234;26;20006;-57
2024/04/15 05:49:50;;;;;;;3.70;1.02;;;;;;;5.33;87.30;99786.28;5446036;26;20083;-56
2024/04/15 05:52:17;;;;;;;4.88;0.55;;;;;;;5.32;87.28;99795.66;5445858;26;20333;-58
2024/04/15 05:54:45;;;;;;;5.25;0.98;;;;;;;5.31;87.36;99805.03;5444697;26;20002;-57
2024/04/15 05:57:12;;;;;;;4.93;0.77;;;;;;;5.29;87.38;99801.03;5444937;26;20002;-57
2024/04/15 05:59:40;;;;;;;4.57;1.15;;;;;;;5.29;87.40;99799.09;5422595;26;20007;-57
2024/04/15 06:02:07;;;;;;;7.65;1.55;;;;;;;5.32;87.55;99803.88;5410391;26;20017;-58
2024/04/15 06:04:35;;;;;;;6.65;1.20;;;;;;;5.32;87.68;99809.38;5432212;26;20069;-60
2024/04/15 06:07:03;;;;;;;10.77;2.58;;;;;;;5.34;87.48;99806.31;5444739;26;19999;-55
2024/04/15 06:09:31;;;;;;;3.95;1.10;;;;;;;5.34;87.65;99823.59;5455672;26;20006;-57
2024/04/15 06:11:58;;;;;;;4.88;1.05;;;;;;;5.33;87.70;99824.72;5449543;26;20088;-58
2024/04/15 06:14:25;;;;;;;5.38;1.83;;;;;;;5.33;87.67;99823.91;5445372;26;20022;-60
2024/04/15 06:16:53;;;;;;;8.82;1.55;;;;;;;5.36;87.80;99823.25;5413449;26;20011;-57
2024/04/15 06:19:21;;;;;;;10.68;1.38;;;;;;;5.36;87.65;99835.03;5444828;26;20011;-56
2024/04/15 06:21:49;;;;;;;15.45;2.22;;;;;;;5.36;87.40;99843.25;5413324;26;20013;-58
2024/04/15 06:24:18;;;;;;;9.30;1.75;;;;;;;5.36;87.72;99843.25;5445302;26;20006;-58
2024/04/15 06:26:48;;;;;;;4.43;1.38;;;;;;;5.38;87.80;99830.00;5413464;26;20026;-57
2024/04/15 06:29:15;;;;;;;10.48;1.65;;;;;;;5.39;87.55;99822.56;5446373;26;20075;-56
2024/04/15 06:31:42;;;;;;;10.43;1.75;;;;;;;5.36;87.80;99834.22;5444814;26;20426;-57
2024/04/15 06:34:10;;;;;;;8.93;1.45;;;;;;;5.34;87.66;99831.81;5413829;26;20425;-55
2024/04/15 06:36:37;;;;;;;8.43;1.77;;;;;;;5.38;87.84;99840.16;5442339;26;20014;-58
2024/04/15 06:39:05;;;;;;;10.18;1.83;;;;;;;5.40;87.75;99844.19;5413990;26;20013;-60
2024/04/15 06:41:32;;;;;;;4.03;2.53;;;;;;;5.42;87.82;99841.94;5444271;26;20011;-59
2024/04/15 06:43:59;;;;;;;9.93;2.35;;;;;;;5.44;87.93;99855.31;5456296;26;20448;-55
2024/04/15 06:46:27;;;;;;;8.27;1.77;;;;;;;5.45;87.62;99852.22;5452192;26;20360;-57
2024/04/15 06:48:54;;;;;;;3.63;1.00;;;;;;;5.47;87.76;99838.19;5449544;26;20014;-58
2024/04/15 06:51:22;;;;;;;14.18;3.92;;;;;;;5.50;87.57;99852.06;5482045;26;20021;-60
2024/04/15 06:53:49;;;;;;;12.20;2.00;;;;;;;5.56;87.79;99868.34;5451093;26;20003;-57
2024/04/15 06:56:17;;;;;;;5.90;1.80;;;;;;;5.64;87.84;99861.97;5442956;26;20015;-55
2024/04/15 06:58:46;;;;;;;14.07;4.10;;;;;;;5.69;87.54;99856.28;5443681;26;19999;-57
2024/04/15 07:01:13;;;;;;;14.73;1.83;;;;;;;5.70;87.31;99868.88;5420524;26;20401;-58
2024/04/15 07:03:41;;;;;;;9.48;1.77;;;;;;;5.74;87.57;99870.63;5481413;26;20033;-58
2024/04/15 07:06:08;;;;;;;11.90;2.35;;;;;;;5.79;87.39;99877.84;5468656;26;20002;-57
2024/04/15 07:08:36;;;;;;;7.25;2.63;;;;;;;5.87;87.57;99869.59;5481201;26;20332;-57
2024/04/15 07:11:03;;;;;;;7.82;1.23;;;;;;;5.91;87.27;99880.69;5416824;26;20043;-58
2024/04/15 07:13:32;;;;;;;6.75;1.38;;;;;;;5.90;87.03;99895.59;5445181;26;21125;-57
2024/04/15 07:15:59;;;;;;;8.65;2.58;;;;;;;5.91;87.35;99891.69;5414398;26;20083;-57
2024/04/15 07:18:27;;;;;;;11.73;1.67;;;;;;;5.91;87.15;99889.75;5413862;26;20028;-58
2024/04/15 07:20:55;;;;;;;9.55;3.95;;;;;;;5.96;86.96;99896.97;5411959;26;20015;-58
2024/04/15 07:23:22;;;;;;;8.73;1.52;;;;;;;6.08;87.03;99897.88;5435459;26;20346;-59
2024/04/15 07:25:56;;;;;;;8.05;0.98;;;;;;;6.12;86.80;99903.47;5440564;26;20014;-58
2024/04/15 07:28:23;;;;;;;6.90;1.30;;;;;;;6.12;86.35;99881.50;5442744;26;20007;-56
2024/04/15 07:30:59;;;;;;;6.47;1.65;;;;;;;6.16;86.37;99901.69;5442444;26;20003;-56
2024/04/15 07:33:26;;;;;;;12.93;2.17;;;;;;;6.22;86.40;99892.09;5409994;26;20603;-59
2024/04/15 07:35:59;;;;;;;6.93;1.70;;;;;;;6.31;86.35;99898.31;5432149;26;20003;-58
2024/04/15 07:38:27;;;;;;;5.32;1.60;;;;;;;6.32;86.27;99897.16;5437890;26;20038;-60
2024/04/15 07:40:59;;;;;;;15.63;1.83;;;;;;;6.30;85.82;99904.91;5396027;26;20084;-58
2024/04/15 07:43:29;;;;;;;5.93;1.83;;;;;;;6.27;85.80;99891.88;5410994;26;20051;-58
2024/04/15 07:45:56;;;;;;;9.50;1.60;;;;;;;6.31;86.21;99909.28;5428102;26;20015;-60
2024/04/15 07:48:24;;;;;;;6.18;1.48;;;;;;;6.36;85.73;99889.03;5441830;26;20007;-59
2024/04/15 07:50:51;;;;;;;8.27;1.40;;;;;;;6.39;85.40;99902.09;5441703;26;20018;-60
2024/04/15 07:53:19;;;;;;;10.65;1.75;;;;;;;6.37;85.07;99907.94;5441743;26;20011;-59
2024/04/15 07:55:47;;;;;;;6.07;2.08;;;;;;;6.42;85.43;99902.25;5441745;26;20018;-59
2024/04/15 07:58:16;;;;;;;4.97;1.73;;;;;;;6.46;84.70;99925.16;5440833;26;20021;-58
2024/04/15 08:00:44;;;;;;;13.02;2.50;;;;;;;6.54;84.91;99898.75;5438429;26;20004;-60
2024/04/15 08:03:12;;;;;;;7.72;1.42;;;;;;;6.61;84.65;99912.75;5414270;26;20003;-62
2024/04/15 08:05:40;;;;;;;11.48;3.67;;;;;;;6.68;84.75;99916.53;5441532;26;20015;-58
2024/04/15 08:08:08;;;;;;;13.20;1.75;;;;;;;6.83;84.65;99917.03;5411759;26;20003;-58
2024/04/15 08:10:35;;;;;;;4.53;1.50;;;;;;;6.99;84.98;99923.50;5433742;26;20019;-58
2024/04/15 08:13:02;;;;;;;6.07;1.52;;;;;;;7.14;84.67;99922.84;5445725;26;20470;-60
2024/04/15 08:15:31;;;;;;;9.30;1.83;;;;;;;7.26;84.21;99920.06;5444208;26;20025;-60
2024/04/15 08:18:01;;;;;;;10.57;2.10;;;;;;;7.43;84.96;99947.41;5444089;26;20716;-60
2024/04/15 08:20:29;;;;;;;5.65;1.88;;;;;;;7.53;84.85;99949.69;5444193;26;20010;-60
2024/04/15 08:22:56;;;;;;;9.43;1.60;;;;;;;7.64;84.78;99939.84;5451735;26;20017;-60
2024/04/15 08:25:24;;;;;;;10.25;2.25;;;;;;;7.73;83.64;99962.53;5430287;26;20013;-60
2024/04/15 08:27:51;;;;;;;9.57;1.55;;;;;;;7.79;84.46;99946.59;5444035;26;20696;-58
2024/04/15 08:30:22;;;;;;;7.68;1.73;;;;;;;7.98;84.73;99947.59;5444534;26;20010;-60
2024/04/15 08:32:52;;;;;;;13.55;2.63;;;;;;;8.14;84.87;99944.13;5445568;26;20080;-59
2024/04/15 08:35:20;;;;;;;10.07;2.67;;;;;;;8.34;85.49;99949.47;5442889;26;20922;-59
2024/04/15 08:37:47;;;;;;;10.38;4.22;;;;;;;8.53;84.95;99968.16;5445887;26;20002;-60
2024/04/15 08:40:15;;;;;;;6.90;2.30;;;;;;;9.00;85.02;99943.47;5443412;26;20003;-60
2024/04/15 08:42:50;;;;;;;8.30;1.55;;;;;;;9.75;85.55;99952.44;5445016;26;20003;-60
2024/04/15 08:45:21;;;;;;;9.63;1.98;;;;;;;10.61;84.54;99962.31;5441708;26;20018;-60
2024/04/15 08:47:51;;;;;;;13.50;2.53;;;;;;;11.38;83.65;99968.56;5444311;26;20010;-59
2024/04/15 08:50:23;;;;;;;13.10;3.08;;;;;;;11.94;81.19;99967.91;5397711;26;20441;-60
2024/04/15 08:52:52;;;;;;;15.23;2.88;;;;;;;11.99;80.20;99964.81;5440494;26;20033;-60
2024/04/15 08:55:23;;;;;;;9.38;1.80;;;;;;;12.28;79.99;99972.38;5412911;26;20007;-60
2024/04/15 08:57:53;;;;;;;9.88;1.83;;;;;;;12.80;77.16;99977.00;5444791;26;20017;-60
2024/04/15 09:00:22;;;;;;;9.27;3.13;;;;;;;13.12;75.01;99991.31;5440556;26;20017;-59
2024/04/15 09:02:52;;;;;;;5.95;1.17;;;;;;;13.05;73.80;99991.19;5427327;26;20010;-60
2024/04/15 09:05:19;;;;;;;8.82;2.28;;;;;;;12.48;72.23;99998.81;5443483;26;20530;-61
2024/04/15 09:07:47;;;;;;;8.82;2.17;;;;;;;12.14;71.35;99981.28;5412555;26;20046;-60
2024/04/15 09:10:15;;;;;;;5.38;1.40;;;;;;;11.84;70.31;99982.38;5439622;26;19999;-60
2024/04/15 09:12:43;;;;;;;9.88;1.65;;;;;;;11.61;69.31;99999.84;5413044;26;20011;-60
2024/04/15 09:15:13;;;;;;;12.70;1.50;;;;;;;11.32;68.76;100022.66;5445321;26;20011;-60
2024/04/15 09:17:40;;;;;;;7.95;1.27;;;;;;;11.46;69.28;99986.88;5435773;26;20069;-61
2024/04/15 09:20:09;;;;;;;6.78;1.08;;;;;;;12.10;67.91;99999.03;5444089;26;20415;-61
2024/04/15 09:22:38;;;;;;;5.53;1.08;;;;;;;12.83;66.30;100015.16;5449071;26;20006;-61
2024/04/15 09:25:05;;;;;;;9.25;0.77;;;;;;;12.86;65.29;100030.25;5452368;26;20003;-60
2024/04/15 09:27:33;;;;;;;6.20;1.25;;;;;;;12.28;63.58;100047.31;5412516;26;20015;-60
2024/04/15 09:30:01;;;;;;;6.25;1.17;;;;;;;11.54;63.61;100044.03;5444417;26;20038;-60
2024/04/15 09:32:29;;;;;;;5.70;1.20;;;;;;;11.40;64.59;100054.09;5411091;26;20340;-62
2024/04/15 09:35:04;;;;;;;4.35;0.75;;;;;;;11.97;64.35;100055.91;5438157;26;20014;-60
2024/04/15 09:37:34;;;;;;;2.85;0.60;;;;;;;12.47;62.36;100052.72;5438928;26;20026;-61
2024/04/15 09:40:08;;;;;;;3.47;0.68;;;;;;;12.64;62.09;100057.75;5444986;26;19999;-61
2024/04/15 09:42:37;;;;;;;3.20;0.50;;;;;;;13.15;61.07;100065.59;5432711;26;20471;-60
2024/04/15 09:45:09;;;;;;;1.42;0.38;;;;;;;13.84;60.00;100078.66;5441524;26;20018;-61
2024/04/15 09:47:40;;;;;;;0.95;0.30;;;;;;;13.90;58.48;100091.03;5443355;26;20007;-58
2024/04/15 09:50:08;;;;;;;7.32;0.82;;;;;;;13.46;58.74;100087.38;5444182;26;20003;-61
2024/04/15 09:52:40;;;;;;;1.38;0.30;;;;;;;13.67;58.51;100100.72;5428122;26;20456;-60
2024/04/15 09:55:09;;;;;;;2.42;0.85;;;;;;;14.11;58.01;100106.34;5451667;26;20002;-60
2024/04/15 09:57:43;;;;;;;4.45;0.60;;;;;;;13.83;57.45;100121.56;5443181;26;20022;-61
2024/04/15 10:00:15;;;;;;;3.60;0.38;;;;;;;13.09;57.56;100097.66;5409944;26;19998;-60
2024/04/15 10:02:54;;;;;;;2.28;0.43;;;;;;;12.37;58.82;100097.00;5436609;26;20011;-60
2024/04/15 10:05:23;;;;;;;2.58;0.52;;;;;;;12.21;59.07;100083.25;5438481;26;20003;-58
2024/04/15 10:07:52;;;;;;;3.42;0.52;;;;;;;12.65;59.47;100081.59;5444262;26;20010;-60
2024/04/15 10:10:21;;;;;;;2.47;0.70;;;;;;;13.20;56.99;100101.38;5441894;26;20013;-60
2024/04/15 10:12:53;;;;;;;2.50;1.17;;;;;;;13.76;56.46;100090.09;5441500;26;20002;-58
2024/04/15 10:15:23;;;;;;;1.85;0.65;;;;;;;14.29;54.59;100096.13;5430002;26;20021;-60
2024/04/15 10:17:58;;;;;;;3.72;1.17;;;;;;;14.43;54.08;100099.03;5411975;26;20080;-59
2024/04/15 10:20:37;;;;;;;4.13;0.80;;;;;;;14.77;53.33;100097.72;5439569;26;20346;-59
2024/04/15 10:23:11;;;;;;;12.00;1.60;;;;;;;14.98;52.22;100114.56;5439471;26;20011;-60
2024/04/15 10:25:39;;;;;;;5.53;1.80;;;;;;;15.04;51.90;100109.38;5430496;26;20011;-61
2024/04/15 10:28:11;;;;;;;5.43;1.23;;;;;;;15.02;52.19;100107.00;5441341;26;20006;-60
2024/04/15 10:30:40;;;;;;;5.03;1.88;;;;;;;14.93;51.55;100111.34;5433329;26;20007;-60
2024/04/15 10:33:12;;;;;;;8.05;1.60;;;;;;;14.90;52.51;100121.28;5440900;26;20007;-58
2024/04/15 10:35:40;;;;;;;5.85;1.50;;;;;;;14.79;51.82;100109.25;5444704;26;20003;-60
2024/04/15 10:38:09;;;;;;;7.35;1.73;;;;;;;14.35;52.08;100116.91;5430658;26;20015;-60
2024/04/15 10:40:40;;;;;;;9.25;1.88;;;;;;;13.67;53.27;100095.16;5428786;26;20521;-60
2024/04/15 10:43:08;;;;;;;14.57;2.17;;;;;;;12.87;54.59;100109.66;5441415;26;20015;-60
2024/04/15 10:45:35;;;;;;;12.52;3.03;;;;;;;12.21;56.11;100113.78;5442143;26;20452;-60
2024/04/15 10:48:03;;;;;;;8.93;2.20;;;;;;;11.63;57.30;100130.56;5441833;26;20080;-60
2024/04/15 10:50:31;;;;;;;6.93;1.67;;;;;;;11.58;57.73;100116.19;5438254;26;20025;-60
2024/04/15 10:52:59;;;;;;;11.90;1.88;;;;;;;11.62;56.77;100101.22;5407912;26;20011;-60
2024/04/15 10:55:27;;;;;;;13.35;1.90;;;;;;;11.87;56.48;100106.47;5442500;26;20002;-60
2024/04/15 10:57:54;;;;;;;9.40;2.55;;;;;;;11.92;56.47;100108.94;5442420;26;20007;-58
2024/04/15 11:00:24;;;;;;;11.90;2.45;;;;;;;11.89;56.82;100120.75;5408068;26;20079;-58
2024/04/15 11:02:53;;;;;;;8.57;3.28;;;;;;;11.89;56.84;100110.47;5442323;26;20010;-60
2024/04/15 11:05:22;;;;;;;11.55;2.25;;;;;;;11.71;56.86;100111.31;5441318;26;20011;-61
2024/04/15 11:07:53;;;;;;;13.13;3.25;;;;;;;11.62;56.75;100106.00;5406022;26;20007;-60
2024/04/15 11:10:21;;;;;;;15.63;3.38;;;;;;;11.59;57.30;100113.06;5447382;26;20002;-60
2024/04/15 11:12:58;;;;;;;11.82;2.60;;;;;;;11.52;56.63;100124.00;5403077;26;20015;-60
2024/04/15 11:15:26;;;;;;;13.10;2.47;;;;;;;11.45;56.45;100117.53;5410723;26;20006;-61
2024/04/15 11:17:55;;;;;;;7.25;1.75;;;;;;;11.41;56.43;100111.13;5429894;26;20008;-59
2024/04/15 11:20:24;;;;;;;7.57;2.80;;;;;;;11.38;56.18;100115.44;5436814;26;20022;-60
2024/04/15 11:22:52;;;;;;;10.30;2.35;;;;;;;11.36;56.03;100114.16;5435732;26;20007;-60
2024/04/15 11:25:20;;;;;;;19.67;2.67;;;;;;;11.32;56.09;100111.34;5436590;26;20030;-60
2024/04/15 11:27:52;;;;;;;9.75;2.03;;;;;;;11.32;56.39;100103.03;5442026;26;20011;-60
2024/04/15 11:30:23;;;;;;;12.30;1.98;;;;;;;11.25;55.89;100111.19;5392986;26;20401;-62
2024/04/15 11:32:51;;;;;;;5.78;1.85;;;;;;;11.16;56.20;100118.94;5433833;26;20018;-60
2024/04/15 11:35:21;;;;;;;16.73;2.83;;;;;;;11.21;56.59;100129.72;5439754;26;20816;-61
2024/04/15 11:38:01;;;;;;;13.02;2.65;;;;;;;11.19;56.95;100120.97;5444824;26;20413;-60
2024/04/15 11:40:30;;;;;;;14.20;2.83;;;;;;;11.22;57.27;100124.97;5445101;26;20023;-62
2024/04/15 11:42:59;;;;;;;8.25;1.90;;;;;;;11.32;57.56;100138.25;5379073;26;20449;-60